Ontonagon, MI (49953)

8:50 PM EST on February 18, 2018 (GMT -0500)
South side of town | | Change Station

Elev 1473 ft 46.86 °N, 89.31 °W | Updated 23 minutes ago

Snow
Snow
28.3 °F
Feels Like 28 °F
N
1.0
Wind Variable Wind from West

Today
High -- | Low -- °F
--% Chance of Precip.
Yesterday
High -- | Low -- °F
Precip. -- in
Pressure 29.74 in
Visibility 2.0 miles
Clouds Overcast 2400 ft
Windchill 28 °F
Dew Point 20 °F
Humidity 71%
Rainfall 0.00 in
Snow Depth Not available.
7:56 AM 6:26 PM
Waxing Crescent, 10% visible
SPECI KCMX 190145Z AUTO 08006KT 2SM -SN OVC024 M03/M07 A2974 RMK AO2 P0000 T10331072
Pressure 29.74 in
Visibility 2.0 miles
Clouds Overcast 2400 ft
Windchill 28 °F
Dew Point 20 °F
Humidity 71%
Rainfall 0.00 in
Snow Depth Not available.
7:56 AM 6:26 PM
Waxing Crescent, 10% visible
SPECI KCMX 190145Z AUTO 08006KT 2SM -SN OVC024 M03/M07 A2974 RMK AO2 P0000 T10331072

Get Severe Weather Alerts

Thanks for signing up!

Be on the lookout for a verification email in your inbox.

You'll start receiving the daily forecast at 6 AM.

×

10-Day Weather Forecast

Almanac

Astronomy

Feb. 18, 2018 Rise Set
Actual Time
Civil Twilight
Nautical Twilight
Astronomical Twilight
Moon
Length of Visible Light
Length of Day
Tomorrow will be .
, % of the Moon is Illuminated

Today's Extremes

State Highs State Lows

Community

WunderPhotos

Category 6

Welcome to Category 6. This is the collective home for Weather Underground's featured writeups by Dr. Jeff Masters (right), Bob Henson (left), Chris Burt, and other regular contributors.

Nearby

Air Quality

  Air Quality AQ Index Pollutant
Not available.

Snow Depth

Station Depth Elevation

Earthquake Activity

City Distance Mag. Time & Date
Minimum magnitude displayed is 2.5.

Coastal Water Temperatures

Place Temperature

Stations

Nearby Weather Stations

Station Location Temp. Windchill Dew Point Humidity Wind Precip. Elev Updated Type
                   

Watches & Warnings

There are currently no watches in effect.